sensor_id;sensor_type;location;lat;lon;timestamp;pressure;altitude;pressure_sealevel;temperature;humidity
61345;BME280;47216;42.656;23.232;2023-02-03T00:00:07;94118.53;;;2.43;67.52
61345;BME280;47216;42.656;23.232;2023-02-03T00:02:34;94125.53;;;2.21;67.98
61345;BME280;47216;42.656;23.232;2023-02-03T00:05:01;94113.34;;;2.01;69.79
61345;BME280;47216;42.656;23.232;2023-02-03T00:07:29;94112.00;;;2.12;69.91
61345;BME280;47216;42.656;23.232;2023-02-03T00:09:56;94115.97;;;2.15;70.27
61345;BME280;47216;42.656;23.232;2023-02-03T00:12:23;94117.53;;;2.09;70.62
61345;BME280;47216;42.656;23.232;2023-02-03T00:14:49;94110.72;;;1.95;71.25
61345;BME280;47216;42.656;23.232;2023-02-03T00:17:16;94114.69;;;1.97;71.59
61345;BME280;47216;42.656;23.232;2023-02-03T00:19:43;94106.47;;;2.08;71.62
61345;BME280;47216;42.656;23.232;2023-02-03T00:22:10;94118.75;;;2.13;71.77
61345;BME280;47216;42.656;23.232;2023-02-03T00:24:39;94112.44;;;2.16;71.39
61345;BME280;47216;42.656;23.232;2023-02-03T00:27:05;94114.34;;;2.07;71.97
61345;BME280;47216;42.656;23.232;2023-02-03T00:29:32;94116.38;;;2.12;71.25
61345;BME280;47216;42.656;23.232;2023-02-03T00:31:59;94122.25;;;2.05;72.07
61345;BME280;47216;42.656;23.232;2023-02-03T00:34:26;94128.78;;;2.01;72.15
61345;BME280;47216;42.656;23.232;2023-02-03T00:36:53;94116.66;;;1.95;72.21
61345;BME280;47216;42.656;23.232;2023-02-03T00:39:20;94128.50;;;1.96;71.86
61345;BME280;47216;42.656;23.232;2023-02-03T00:41:48;94130.50;;;1.94;71.07
61345;BME280;47216;42.656;23.232;2023-02-03T00:44:15;94130.84;;;1.91;71.64
61345;BME280;47216;42.656;23.232;2023-02-03T00:46:41;94134.28;;;1.98;70.73
61345;BME280;47216;42.656;23.232;2023-02-03T00:49:08;94132.09;;;1.95;70.91
61345;BME280;47216;42.656;23.232;2023-02-03T00:51:35;94133.81;;;1.88;70.90
61345;BME280;47216;42.656;23.232;2023-02-03T00:54:02;94132.97;;;1.81;69.50
61345;BME280;47216;42.656;23.232;2023-02-03T00:56:28;94140.25;;;1.77;69.59
61345;BME280;47216;42.656;23.232;2023-02-03T00:58:56;94134.09;;;1.72;69.20
61345;BME280;47216;42.656;23.232;2023-02-03T01:01:23;94143.75;;;1.70;69.12
61345;BME280;47216;42.656;23.232;2023-02-03T01:03:52;94148.09;;;1.69;69.41
61345;BME280;47216;42.656;23.232;2023-02-03T01:06:19;94150.47;;;1.71;69.68
61345;BME280;47216;42.656;23.232;2023-02-03T01:08:46;94159.91;;;1.63;68.95
61345;BME280;47216;42.656;23.232;2023-02-03T01:11:13;94155.94;;;1.61;68.18
61345;BME280;47216;42.656;23.232;2023-02-03T01:13:41;94158.06;;;1.79;68.24
61345;BME280;47216;42.656;23.232;2023-02-03T01:16:11;94168.53;;;1.77;68.48
61345;BME280;47216;42.656;23.232;2023-02-03T01:18:38;94164.31;;;1.70;68.84
61345;BME280;47216;42.656;23.232;2023-02-03T01:21:05;94154.69;;;1.57;68.50
61345;BME280;47216;42.656;23.232;2023-02-03T01:23:32;94153.53;;;1.59;69.88
61345;BME280;47216;42.656;23.232;2023-02-03T01:26:01;94158.94;;;1.64;69.75
61345;BME280;47216;42.656;23.232;2023-02-03T01:28:27;94156.00;;;1.67;69.35
61345;BME280;47216;42.656;23.232;2023-02-03T01:30:54;94166.88;;;1.70;69.83
61345;BME280;47216;42.656;23.232;2023-02-03T01:33:22;94165.41;;;1.60;69.54
61345;BME280;47216;42.656;23.232;2023-02-03T01:35:49;94161.44;;;1.58;70.10
61345;BME280;47216;42.656;23.232;2023-02-03T01:38:15;94162.28;;;1.65;69.85
61345;BME280;47216;42.656;23.232;2023-02-03T01:40:42;94156.03;;;1.74;69.39
61345;BME280;47216;42.656;23.232;2023-02-03T01:43:09;94160.41;;;1.74;69.85
61345;BME280;47216;42.656;23.232;2023-02-03T01:45:36;94162.75;;;1.75;69.50
61345;BME280;47216;42.656;23.232;2023-02-03T01:48:05;94155.44;;;1.72;69.15
61345;BME280;47216;42.656;23.232;2023-02-03T01:50:34;94148.88;;;1.70;69.50
61345;BME280;47216;42.656;23.232;2023-02-03T01:53:03;94157.94;;;1.65;69.09
61345;BME280;47216;42.656;23.232;2023-02-03T01:55:32;94157.53;;;1.62;68.97
61345;BME280;47216;42.656;23.232;2023-02-03T01:58:00;94171.28;;;1.76;68.50
61345;BME280;47216;42.656;23.232;2023-02-03T02:00:28;94167.59;;;1.63;68.72
61345;BME280;47216;42.656;23.232;2023-02-03T02:02:56;94166.88;;;1.70;68.78
61345;BME280;47216;42.656;23.232;2023-02-03T02:05:24;94160.41;;;1.74;68.36
61345;BME280;47216;42.656;23.232;2023-02-03T02:07:54;94175.19;;;1.93;68.02
61345;BME280;47216;42.656;23.232;2023-02-03T02:10:21;94174.94;;;1.88;68.43
61345;BME280;47216;42.656;23.232;2023-02-03T02:12:48;94171.81;;;1.93;68.25
61345;BME280;47216;42.656;23.232;2023-02-03T02:15:15;94187.88;;;1.95;67.88
61345;BME280;47216;42.656;23.232;2023-02-03T02:17:50;94191.34;;;1.87;68.26
61345;BME280;47216;42.656;23.232;2023-02-03T02:25:50;94198.09;;;1.88;68.52
61345;BME280;47216;42.656;23.232;2023-02-03T02:31:11;94209.53;;;1.85;68.11
61345;BME280;47216;42.656;23.232;2023-02-03T02:33:48;94218.03;;;1.86;68.00
61345;BME280;47216;42.656;23.232;2023-02-03T02:36:20;94208.44;;;1.95;67.68
61345;BME280;47216;42.656;23.232;2023-02-03T02:38:53;94207.53;;;1.81;67.73
61345;BME280;47216;42.656;23.232;2023-02-03T02:41:23;94198.75;;;1.75;67.95
61345;BME280;47216;42.656;23.232;2023-02-03T02:43:54;94205.44;;;1.70;68.01
61345;BME280;47216;42.656;23.232;2023-02-03T02:46:24;94204.22;;;1.65;68.68
61345;BME280;47216;42.656;23.232;2023-02-03T02:48:56;94199.78;;;1.59;68.96
61345;BME280;47216;42.656;23.232;2023-02-03T02:51:25;94193.44;;;1.55;69.29
61345;BME280;47216;42.656;23.232;2023-02-03T02:53:56;94204.94;;;1.59;69.67
61345;BME280;47216;42.656;23.232;2023-02-03T02:56:25;94204.94;;;1.59;69.41
61345;BME280;47216;42.656;23.232;2023-02-03T02:58:52;94206.53;;;1.60;69.42
61345;BME280;47216;42.656;23.232;2023-02-03T03:01:21;94216.94;;;1.74;68.65
61345;BME280;47216;42.656;23.232;2023-02-03T03:03:48;94218.78;;;1.58;67.36
61345;BME280;47216;42.656;23.232;2023-02-03T03:06:17;94225.16;;;1.62;67.35
61345;BME280;47216;42.656;23.232;2023-02-03T03:08:45;94227.31;;;1.80;67.35
61345;BME280;47216;42.656;23.232;2023-02-03T03:11:13;94225.22;;;1.69;67.44
61345;BME280;47216;42.656;23.232;2023-02-03T03:13:41;94231.84;;;1.63;67.12
61345;BME280;47216;42.656;23.232;2023-02-03T03:16:08;94231.44;;;1.60;67.05
61345;BME280;47216;42.656;23.232;2023-02-03T03:18:36;94236.75;;;1.58;66.85
61345;BME280;47216;42.656;23.232;2023-02-03T03:21:04;94229.03;;;1.58;66.53
61345;BME280;47216;42.656;23.232;2023-02-03T03:23:34;94247.34;;;1.70;67.13
61345;BME280;47216;42.656;23.232;2023-02-03T03:26:13;94248.50;;;1.67;66.96
61345;BME280;47216;42.656;23.232;2023-02-03T03:28:42;94243.91;;;1.63;65.85
61345;BME280;47216;42.656;23.232;2023-02-03T03:31:12;94248.50;;;1.67;65.81
61345;BME280;47216;42.656;23.232;2023-02-03T03:33:38;94244.59;;;1.72;65.38
61345;BME280;47216;42.656;23.232;2023-02-03T03:36:08;94240.44;;;1.71;65.54
61345;BME280;47216;42.656;23.232;2023-02-03T03:38:39;94244.72;;;1.63;65.97
61345;BME280;47216;42.656;23.232;2023-02-03T03:41:07;94231.00;;;1.56;66.05
61345;BME280;47216;42.656;23.232;2023-02-03T03:43:38;94239.94;;;1.60;65.97
61345;BME280;47216;42.656;23.232;2023-02-03T03:46:08;94247.50;;;1.47;66.40
61345;BME280;47216;42.656;23.232;2023-02-03T03:48:39;94243.09;;;1.41;66.62
61345;BME280;47216;42.656;23.232;2023-02-03T03:51:13;94246.88;;;1.45;66.74
61345;BME280;47216;42.656;23.232;2023-02-03T03:53:43;94242.50;;;1.39;66.52
61345;BME280;47216;42.656;23.232;2023-02-03T03:56:13;94241.13;;;1.43;67.07
61345;BME280;47216;42.656;23.232;2023-02-03T03:58:41;94238.31;;;1.38;66.70
61345;BME280;47216;42.656;23.232;2023-02-03T04:01:11;94239.84;;;1.32;66.12
61345;BME280;47216;42.656;23.232;2023-02-03T04:03:38;94236.56;;;1.23;67.12
61345;BME280;47216;42.656;23.232;2023-02-03T04:06:07;94237.38;;;1.24;67.53
61345;BME280;47216;42.656;23.232;2023-02-03T04:08:34;94232.69;;;1.28;67.31
61345;BME280;47216;42.656;23.232;2023-02-03T04:11:02;94241.88;;;1.37;67.25
61345;BME280;47216;42.656;23.232;2023-02-03T04:13:28;94240.63;;;1.33;67.02
61345;BME280;47216;42.656;23.232;2023-02-03T04:15:55;94238.16;;;1.39;66.46
61345;BME280;47216;42.656;23.232;2023-02-03T04:18:22;94258.44;;;1.34;66.43
61345;BME280;47216;42.656;23.232;2023-02-03T04:20:48;94249.91;;;1.34;67.04
61345;BME280;47216;42.656;23.232;2023-02-03T04:23:15;94265.94;;;1.36;66.59
61345;BME280;47216;42.656;23.232;2023-02-03T04:25:42;94256.84;;;1.33;66.87
61345;BME280;47216;42.656;23.232;2023-02-03T04:28:10;94258.00;;;1.31;67.04
61345;BME280;47216;42.656;23.232;2023-02-03T04:30:37;94263.13;;;1.31;67.04
61345;BME280;47216;42.656;23.232;2023-02-03T04:33:04;94261.03;;;1.19;67.10
61345;BME280;47216;42.656;23.232;2023-02-03T04:35:30;94252.16;;;1.22;67.53
61345;BME280;47216;42.656;23.232;2023-02-03T04:37:57;94259.06;;;1.21;67.27
61345;BME280;47216;42.656;23.232;2023-02-03T04:40:24;94267.03;;;1.26;66.87
61345;BME280;47216;42.656;23.232;2023-02-03T04:42:50;94285.25;;;1.32;66.62
61345;BME280;47216;42.656;23.232;2023-02-03T04:45:18;94277.66;;;1.23;66.95
61345;BME280;47216;42.656;23.232;2023-02-03T04:47:46;94288.84;;;1.16;67.51
61345;BME280;47216;42.656;23.232;2023-02-03T04:50:16;94280.94;;;1.17;67.49
61345;BME280;47216;42.656;23.232;2023-02-03T04:52:43;94282.00;;;1.08;67.70
61345;BME280;47216;42.656;23.232;2023-02-03T04:55:09;94289.38;;;1.11;67.70
61345;BME280;47216;42.656;23.232;2023-02-03T04:57:36;94294.31;;;1.13;67.62
61345;BME280;47216;42.656;23.232;2023-02-03T05:00:03;94293.00;;;1.17;67.04
61345;BME280;47216;42.656;23.232;2023-02-03T05:02:31;94304.06;;;1.17;67.81
61345;BME280;47216;42.656;23.232;2023-02-03T05:04:58;94299.91;;;1.16;67.12
61345;BME280;47216;42.656;23.232;2023-02-03T05:07:25;94294.84;;;1.23;66.93
61345;BME280;47216;42.656;23.232;2023-02-03T05:09:51;94294.25;;;1.21;66.83
61345;BME280;47216;42.656;23.232;2023-02-03T05:12:18;94295.03;;;1.21;66.98
61345;BME280;47216;42.656;23.232;2023-02-03T05:14:45;94308.94;;;1.12;66.92
61345;BME280;47216;42.656;23.232;2023-02-03T05:17:12;94313.81;;;1.07;67.23
61345;BME280;47216;42.656;23.232;2023-02-03T05:19:40;94307.06;;;1.06;67.35
61345;BME280;47216;42.656;23.232;2023-02-03T05:22:07;94319.75;;;1.08;67.54
61345;BME280;47216;42.656;23.232;2023-02-03T05:24:33;94315.59;;;1.07;67.48
61345;BME280;47216;42.656;23.232;2023-02-03T05:27:00;94329.84;;;1.09;67.72
61345;BME280;47216;42.656;23.232;2023-02-03T05:29:27;94323.72;;;1.10;67.77
61345;BME280;47216;42.656;23.232;2023-02-03T05:31:54;94330.09;;;1.14;67.96
61345;BME280;47216;42.656;23.232;2023-02-03T05:34:20;94339.31;;;1.23;67.57
61345;BME280;47216;42.656;23.232;2023-02-03T05:36:48;94336.13;;;1.21;67.40
61345;BME280;47216;42.656;23.232;2023-02-03T05:39:15;94353.31;;;1.36;67.37
61345;BME280;47216;42.656;23.232;2023-02-03T05:41:41;94339.75;;;1.27;67.09
61345;BME280;47216;42.656;23.232;2023-02-03T05:44:19;94332.66;;;1.14;67.80
61345;BME280;47216;42.656;23.232;2023-02-03T05:46:46;94340.00;;;1.17;67.70
61345;BME280;47216;42.656;23.232;2023-02-03T05:49:13;94334.88;;;1.17;67.78
61345;BME280;47216;42.656;23.232;2023-02-03T05:51:39;94352.59;;;1.12;67.29
61345;BME280;47216;42.656;23.232;2023-02-03T05:54:08;94356.22;;;1.03;67.96
61345;BME280;47216;42.656;23.232;2023-02-03T05:56:34;94354.34;;;0.97;68.40
61345;BME280;47216;42.656;23.232;2023-02-03T05:59:01;94366.50;;;1.03;68.12
61345;BME280;47216;42.656;23.232;2023-02-03T06:01:28;94363.31;;;1.16;67.76
61345;BME280;47216;42.656;23.232;2023-02-03T06:03:55;94363.22;;;1.09;67.46
61345;BME280;47216;42.656;23.232;2023-02-03T06:06:21;94360.41;;;1.04;67.66
61345;BME280;47216;42.656;23.232;2023-02-03T06:08:48;94366.84;;;1.00;67.69
61345;BME280;47216;42.656;23.232;2023-02-03T06:11:21;94364.97;;;0.94;68.06
61345;BME280;47216;42.656;23.232;2023-02-03T06:13:49;94372.94;;;0.99;68.09
61345;BME280;47216;42.656;23.232;2023-02-03T06:16:16;94374.19;;;1.03;67.69
61345;BME280;47216;42.656;23.232;2023-02-03T06:18:43;94366.13;;;1.06;67.48
61345;BME280;47216;42.656;23.232;2023-02-03T06:21:10;94378.28;;;1.12;67.36
61345;BME280;47216;42.656;23.232;2023-02-03T06:23:36;94388.53;;;1.12;66.68
61345;BME280;47216;42.656;23.232;2023-02-03T06:26:03;94376.31;;;1.14;67.18
61345;BME280;47216;42.656;23.232;2023-02-03T06:28:31;94388.53;;;1.12;67.03
61345;BME280;47216;42.656;23.232;2023-02-03T06:30:58;94387.75;;;1.26;66.60
61345;BME280;47216;42.656;23.232;2023-02-03T06:33:25;94385.53;;;1.38;66.07
61345;BME280;47216;42.656;23.232;2023-02-03T06:35:52;94389.81;;;1.46;65.32
61345;BME280;47216;42.656;23.232;2023-02-03T06:38:19;94388.19;;;1.45;64.56
61345;BME280;47216;42.656;23.232;2023-02-03T06:40:45;94401.25;;;1.43;64.91
61345;BME280;47216;42.656;23.232;2023-02-03T06:43:12;94395.13;;;1.44;64.58
61345;BME280;47216;42.656;23.232;2023-02-03T06:45:41;94396.53;;;1.47;64.68
61345;BME280;47216;42.656;23.232;2023-02-03T06:48:10;94412.50;;;1.57;64.51
61345;BME280;47216;42.656;23.232;2023-02-03T06:50:37;94399.66;;;1.57;64.18
61345;BME280;47216;42.656;23.232;2023-02-03T06:53:05;94403.88;;;1.65;64.30
61345;BME280;47216;42.656;23.232;2023-02-03T06:55:32;94401.50;;;1.63;63.81
61345;BME280;47216;42.656;23.232;2023-02-03T06:57:59;94414.09;;;1.58;63.98
61345;BME280;47216;42.656;23.232;2023-02-03T07:00:26;94412.13;;;1.60;63.55
61345;BME280;47216;42.656;23.232;2023-02-03T07:02:54;94415.84;;;1.73;63.73
61345;BME280;47216;42.656;23.232;2023-02-03T07:05:21;94411.31;;;1.75;63.99
61345;BME280;47216;42.656;23.232;2023-02-03T07:07:49;94409.72;;;1.88;63.13
61345;BME280;47216;42.656;23.232;2023-02-03T07:10:16;94405.44;;;1.96;63.59
61345;BME280;47216;42.656;23.232;2023-02-03T07:12:42;94404.19;;;1.92;62.69
61345;BME280;47216;42.656;23.232;2023-02-03T07:15:09;94408.81;;;1.96;62.80
61345;BME280;47216;42.656;23.232;2023-02-03T07:17:36;94420.44;;;1.92;62.07
61345;BME280;47216;42.656;23.232;2023-02-03T07:20:05;94415.22;;;1.85;62.36
61345;BME280;47216;42.656;23.232;2023-02-03T07:22:32;94413.53;;;1.78;62.72
61345;BME280;47216;42.656;23.232;2023-02-03T07:25:00;94421.78;;;1.73;63.27
61345;BME280;47216;42.656;23.232;2023-02-03T07:27:27;94414.25;;;1.72;62.54
61345;BME280;47216;42.656;23.232;2023-02-03T07:29:53;94424.81;;;1.77;62.66
61345;BME280;47216;42.656;23.232;2023-02-03T07:32:20;94422.69;;;1.80;62.92
61345;BME280;47216;42.656;23.232;2023-02-03T07:34:47;94422.31;;;1.68;62.91
61345;BME280;47216;42.656;23.232;2023-02-03T07:37:15;94433.94;;;1.64;62.59
61345;BME280;47216;42.656;23.232;2023-02-03T07:39:42;94440.31;;;1.68;62.21
61345;BME280;47216;42.656;23.232;2023-02-03T07:42:10;94434.19;;;1.70;61.81
61345;BME280;47216;42.656;23.232;2023-02-03T07:44:36;94442.44;;;1.80;61.85
61345;BME280;47216;42.656;23.232;2023-02-03T07:47:03;94434.38;;;1.83;62.14
61345;BME280;47216;42.656;23.232;2023-02-03T07:49:30;94437.88;;;2.12;61.35
61345;BME280;47216;42.656;23.232;2023-02-03T07:51:57;94438.13;;;2.17;61.20
61345;BME280;47216;42.656;23.232;2023-02-03T07:54:25;94434.41;;;2.19;61.20
61345;BME280;47216;42.656;23.232;2023-02-03T07:56:51;94430.88;;;2.42;60.55
61345;BME280;47216;42.656;23.232;2023-02-03T07:59:18;94445.16;;;2.44;59.99
61345;BME280;47216;42.656;23.232;2023-02-03T08:01:45;94441.97;;;2.42;60.24
61345;BME280;47216;42.656;23.232;2023-02-03T08:04:12;94444.28;;;2.37;60.25
61345;BME280;47216;42.656;23.232;2023-02-03T08:06:40;94452.72;;;2.31;60.23
61345;BME280;47216;42.656;23.232;2023-02-03T08:09:07;94443.47;;;2.15;60.59
61345;BME280;47216;42.656;23.232;2023-02-03T08:11:35;94444.09;;;2.02;60.22
61345;BME280;47216;42.656;23.232;2023-02-03T08:14:02;94446.66;;;2.02;60.10
61345;BME280;47216;42.656;23.232;2023-02-03T08:16:29;94446.06;;;2.00;61.38
61345;BME280;47216;42.656;23.232;2023-02-03T08:18:55;94457.94;;;2.01;61.38
61345;BME280;47216;42.656;23.232;2023-02-03T08:21:23;94445.72;;;2.03;60.50
61345;BME280;47216;42.656;23.232;2023-02-03T08:23:49;94443.72;;;2.05;60.27
61345;BME280;47216;42.656;23.232;2023-02-03T08:26:16;94442.16;;;2.04;60.99
61345;BME280;47216;42.656;23.232;2023-02-03T08:28:48;94436.91;;;1.98;61.24
61345;BME280;47216;42.656;23.232;2023-02-03T08:31:15;94435.50;;;1.95;61.23
61345;BME280;47216;42.656;23.232;2023-02-03T08:33:42;94444.09;;;2.02;61.58
61345;BME280;47216;42.656;23.232;2023-02-03T08:36:08;94445.09;;;2.01;60.89
61345;BME280;47216;42.656;23.232;2023-02-03T08:38:36;94453.72;;;2.30;60.66
61345;BME280;47216;42.656;23.232;2023-02-03T08:41:07;94460.81;;;2.28;60.77
61345;BME280;47216;42.656;23.232;2023-02-03T08:43:34;94468.91;;;2.25;60.06
61345;BME280;47216;42.656;23.232;2023-02-03T08:46:02;94471.97;;;2.35;59.59
61345;BME280;47216;42.656;23.232;2023-02-03T08:48:29;94480.03;;;2.47;59.51
61345;BME280;47216;42.656;23.232;2023-02-03T08:50:56;94469.88;;;2.60;59.72
61345;BME280;47216;42.656;23.232;2023-02-03T08:53:23;94479.34;;;2.38;59.65
61345;BME280;47216;42.656;23.232;2023-02-03T08:55:50;94488.22;;;2.36;60.61
61345;BME280;47216;42.656;23.232;2023-02-03T08:58:17;94493.97;;;2.38;60.30
61345;BME280;47216;42.656;23.232;2023-02-03T09:00:43;94492.56;;;2.35;61.26
61345;BME280;47216;42.656;23.232;2023-02-03T09:03:15;94496.13;;;2.34;60.79
61345;BME280;47216;42.656;23.232;2023-02-03T09:05:42;94502.56;;;2.08;61.66
61345;BME280;47216;42.656;23.232;2023-02-03T09:08:08;94490.81;;;2.21;62.06
61345;BME280;47216;42.656;23.232;2023-02-03T09:10:35;94481.03;;;2.31;61.95
61345;BME280;47216;42.656;23.232;2023-02-03T09:13:02;94479.34;;;2.38;61.11
61345;BME280;47216;42.656;23.232;2023-02-03T09:15:29;94475.31;;;2.50;61.66
61345;BME280;47216;42.656;23.232;2023-02-03T09:17:55;94480.97;;;2.61;61.07
61345;BME280;47216;42.656;23.232;2023-02-03T09:20:23;94465.78;;;2.66;60.28
61345;BME280;47216;42.656;23.232;2023-02-03T09:22:50;94477.19;;;2.57;59.89
61345;BME280;47216;42.656;23.232;2023-02-03T09:25:19;94469.88;;;2.60;60.15
61345;BME280;47216;42.656;23.232;2023-02-03T09:27:45;94467.63;;;2.72;60.31
61345;BME280;47216;42.656;23.232;2023-02-03T09:30:12;94472.03;;;2.78;60.10
61345;BME280;47216;42.656;23.232;2023-02-03T09:32:39;94478.28;;;2.90;59.93
61345;BME280;47216;42.656;23.232;2023-02-03T09:35:06;94483.28;;;2.92;60.69
61345;BME280;47216;42.656;23.232;2023-02-03T09:37:34;94472.53;;;2.88;60.20
61345;BME280;47216;42.656;23.232;2023-02-03T09:40:01;94466.66;;;2.94;59.33
61345;BME280;47216;42.656;23.232;2023-02-03T09:42:35;94464.69;;;2.97;59.33
61345;BME280;47216;42.656;23.232;2023-02-03T09:45:10;94469.13;;;3.03;58.73
61345;BME280;47216;42.656;23.232;2023-02-03T09:47:40;94466.72;;;3.01;59.37
61345;BME280;47216;42.656;23.232;2023-02-03T09:50:10;94459.66;;;3.10;59.22
61345;BME280;47216;42.656;23.232;2023-02-03T09:52:39;94451.09;;;3.09;59.59
61345;BME280;47216;42.656;23.232;2023-02-03T09:55:19;94454.34;;;3.18;59.44
61345;BME280;47216;42.656;23.232;2023-02-03T09:57:51;94447.91;;;3.29;58.61
61345;BME280;47216;42.656;23.232;2023-02-03T10:00:22;94449.63;;;3.22;58.56
61345;BME280;47216;42.656;23.232;2023-02-03T10:02:52;94452.88;;;3.09;59.40
61345;BME280;47216;42.656;23.232;2023-02-03T10:05:21;94445.84;;;3.18;59.30
61345;BME280;47216;42.656;23.232;2023-02-03T10:07:55;94440.00;;;3.37;58.82
61345;BME280;47216;42.656;23.232;2023-02-03T10:10:24;94422.81;;;3.16;57.16
61345;BME280;47216;42.656;23.232;2023-02-03T10:13:00;94436.56;;;3.51;57.38
61345;BME280;47216;42.656;23.232;2023-02-03T10:15:43;94430.22;;;3.54;56.81
61345;BME280;47216;42.656;23.232;2023-02-03T10:18:14;94436.53;;;3.45;56.32
61345;BME280;47216;42.656;23.232;2023-02-03T10:20:43;94435.34;;;3.19;56.71
61345;BME280;47216;42.656;23.232;2023-02-03T10:23:13;94436.03;;;3.06;58.03
61345;BME280;47216;42.656;23.232;2023-02-03T10:25:43;94432.34;;;3.15;57.92
61345;BME280;47216;42.656;23.232;2023-02-03T10:28:13;94413.28;;;3.10;57.54
61345;BME280;47216;42.656;23.232;2023-02-03T10:30:43;94411.09;;;3.13;57.61
61345;BME280;47216;42.656;23.232;2023-02-03T10:33:11;94411.63;;;3.30;57.60
61345;BME280;47216;42.656;23.232;2023-02-03T10:35:40;94397.31;;;3.56;57.28
61345;BME280;47216;42.656;23.232;2023-02-03T10:38:17;94401.44;;;3.50;55.21
61345;BME280;47216;42.656;23.232;2023-02-03T10:40:46;94408.78;;;3.47;54.60
61345;BME280;47216;42.656;23.232;2023-02-03T10:43:13;94388.81;;;3.27;54.99
61345;BME280;47216;42.656;23.232;2023-02-03T10:45:57;94398.22;;;3.13;54.35
61345;BME280;47216;42.656;23.232;2023-02-03T10:48:24;94403.59;;;3.12;56.05
61345;BME280;47216;42.656;23.232;2023-02-03T10:50:50;94408.47;;;3.07;54.96
61345;BME280;47216;42.656;23.232;2023-02-03T10:53:20;94406.56;;;3.15;55.11
61345;BME280;47216;42.656;23.232;2023-02-03T10:55:47;94412.78;;;3.00;52.51
61345;BME280;47216;42.656;23.232;2023-02-03T10:58:15;94400.53;;;3.02;52.57
61345;BME280;47216;42.656;23.232;2023-02-03T11:00:43;94418.09;;;2.91;51.93
61345;BME280;47216;42.656;23.232;2023-02-03T11:03:15;94413.91;;;2.90;51.61
61345;BME280;47216;42.656;23.232;2023-02-03T11:05:46;94405.56;;;2.88;50.28
61345;BME280;47216;42.656;23.232;2023-02-03T11:08:13;94405.50;;;2.82;51.38
61345;BME280;47216;42.656;23.232;2023-02-03T11:10:42;94407.16;;;2.89;51.75
61345;BME280;47216;42.656;23.232;2023-02-03T11:13:14;94407.16;;;2.89;50.76
61345;BME280;47216;42.656;23.232;2023-02-03T11:15:42;94392.69;;;2.88;50.08
61345;BME280;47216;42.656;23.232;2023-02-03T11:18:24;94397.72;;;2.97;50.78
61345;BME280;47216;42.656;23.232;2023-02-03T11:20:51;94392.91;;;3.15;50.36
61345;BME280;47216;42.656;23.232;2023-02-03T11:23:18;94389.38;;;3.23;50.56
61345;BME280;47216;42.656;23.232;2023-02-03T11:25:47;94380.09;;;3.28;50.89
61345;BME280;47216;42.656;23.232;2023-02-03T11:28:14;94370.25;;;3.39;51.03
61345;BME280;47216;42.656;23.232;2023-02-03T11:30:41;94371.47;;;3.43;49.83
61345;BME280;47216;42.656;23.232;2023-02-03T11:33:13;94365.53;;;3.49;49.81
61345;BME280;47216;42.656;23.232;2023-02-03T11:35:50;94376.69;;;3.56;49.13
61345;BME280;47216;42.656;23.232;2023-02-03T11:38:27;94359.63;;;3.55;49.98
61345;BME280;47216;42.656;23.232;2023-02-03T11:40:59;94361.59;;;3.53;48.33
61345;BME280;47216;42.656;23.232;2023-02-03T11:43:26;94357.66;;;3.57;49.50
61345;BME280;47216;42.656;23.232;2023-02-03T11:45:53;94359.72;;;3.75;49.18
61345;BME280;47216;42.656;23.232;2023-02-03T11:48:26;94349.81;;;3.85;50.00
61345;BME280;47216;42.656;23.232;2023-02-03T11:50:56;94351.81;;;3.90;51.07
61345;BME280;47216;42.656;23.232;2023-02-03T11:53:27;94349.44;;;3.82;50.90
61345;BME280;47216;42.656;23.232;2023-02-03T11:56:01;94359.63;;;3.55;50.51
61345;BME280;47216;42.656;23.232;2023-02-03T11:58:39;94361.22;;;3.56;50.87
61345;BME280;47216;42.656;23.232;2023-02-03T12:01:10;94358.88;;;3.61;50.01
61345;BME280;47216;42.656;23.232;2023-02-03T12:03:43;94354.94;;;3.65;48.20
61345;BME280;47216;42.656;23.232;2023-02-03T12:11:51;94352.88;;;4.02;47.06
61345;BME280;47216;42.656;23.232;2023-02-03T12:14:27;94347.31;;;3.98;46.35
61345;BME280;47216;42.656;23.232;2023-02-03T12:17:14;94346.16;;;4.14;47.29
61345;BME280;47216;42.656;23.232;2023-02-03T12:19:46;94349.72;;;4.13;46.69
61345;BME280;47216;42.656;23.232;2023-02-03T12:22:17;94350.84;;;3.91;47.11
61345;BME280;47216;42.656;23.232;2023-02-03T12:24:50;94349.81;;;3.78;47.76
61345;BME280;47216;42.656;23.232;2023-02-03T12:27:23;94359.63;;;3.55;47.50
61345;BME280;47216;42.656;23.232;2023-02-03T12:29:58;94352.19;;;3.39;47.83
61345;BME280;47216;42.656;23.232;2023-02-03T12:32:28;94340.91;;;3.40;47.69
61345;BME280;47216;42.656;23.232;2023-02-03T12:34:59;94361.03;;;3.23;48.11
61345;BME280;47216;42.656;23.232;2023-02-03T12:37:28;94371.91;;;3.18;49.06
61345;BME280;47216;42.656;23.232;2023-02-03T12:39:57;94355.75;;;3.03;49.53
61345;BME280;47216;42.656;23.232;2023-02-03T12:42:27;94359.53;;;3.07;49.60
61345;BME280;47216;42.656;23.232;2023-02-03T12:44:57;94354.03;;;3.10;50.08
61345;BME280;47216;42.656;23.232;2023-02-03T12:47:26;94345.59;;;2.94;49.06
61345;BME280;47216;42.656;23.232;2023-02-03T12:49:55;94350.63;;;3.03;49.65
61345;BME280;47216;42.656;23.232;2023-02-03T12:52:24;94356.59;;;3.10;49.97
61345;BME280;47216;42.656;23.232;2023-02-03T12:54:55;94346.59;;;2.93;49.48
61345;BME280;47216;42.656;23.232;2023-02-03T12:57:25;94345.25;;;3.04;49.65
61345;BME280;47216;42.656;23.232;2023-02-03T13:00:05;94342.63;;;2.98;50.56
61345;BME280;47216;42.656;23.232;2023-02-03T13:02:34;94331.94;;;2.94;50.35
61345;BME280;47216;42.656;23.232;2023-02-03T13:05:04;94329.97;;;2.96;50.21
61345;BME280;47216;42.656;23.232;2023-02-03T13:07:34;94325.34;;;3.20;51.15
61345;BME280;47216;42.656;23.232;2023-02-03T13:10:03;94322.03;;;3.32;50.39
61345;BME280;47216;42.656;23.232;2023-02-03T13:12:33;94330.03;;;3.51;50.31
61345;BME280;47216;42.656;23.232;2023-02-03T13:15:08;94323.41;;;3.28;49.43
61345;BME280;47216;42.656;23.232;2023-02-03T13:17:42;94321.19;;;3.25;50.04
61345;BME280;47216;42.656;23.232;2023-02-03T13:20:12;94327.09;;;3.12;50.27